createdAt,value
2024-02-21T00:00:51.857Z,52.54
2024-02-21T00:01:51.936Z,53.08
2024-02-21T00:02:51.844Z,50.94
2024-02-21T00:03:51.947Z,52.00
2024-02-21T00:04:51.973Z,52.72
2024-02-21T00:05:51.853Z,51.91
2024-02-21T00:06:51.837Z,53.19
2024-02-21T00:07:51.951Z,50.79
2024-02-21T00:08:52.142Z,54.50
2024-02-21T00:09:51.903Z,52.03
2024-02-21T00:10:52.066Z,53.90
2024-02-21T00:11:51.973Z,51.56
2024-02-21T00:12:51.872Z,51.57
2024-02-21T00:13:51.988Z,52.20
2024-02-21T00:14:51.899Z,52.51
2024-02-21T00:15:51.877Z,53.94
2024-02-21T00:16:51.926Z,52.74
2024-02-21T00:17:51.885Z,51.74
2024-02-21T00:18:51.921Z,51.87
2024-02-21T00:19:51.993Z,52.39
2024-02-21T00:20:51.902Z,53.85
2024-02-21T00:21:51.881Z,50.94
2024-02-21T00:22:51.933Z,53.29
2024-02-21T00:23:52.109Z,53.19
2024-02-21T00:24:51.889Z,51.62
2024-02-21T00:25:52.022Z,50.76
2024-02-21T00:26:51.905Z,50.91
2024-02-21T00:27:51.906Z,55.15
2024-02-21T00:28:52.114Z,51.51
2024-02-21T00:29:51.879Z,53.40
2024-02-21T00:30:51.910Z,52.34
2024-02-21T00:31:52.007Z,51.41
2024-02-21T00:32:51.942Z,54.42
2024-02-21T00:33:51.987Z,53.02
2024-02-21T00:34:51.958Z,52.60
2024-02-21T00:35:51.897Z,52.65
2024-02-21T00:36:51.941Z,54.29
2024-02-21T00:37:52.004Z,53.78
2024-02-21T00:38:51.921Z,51.86
2024-02-21T00:39:51.933Z,50.37
2024-02-21T00:40:51.941Z,51.31
2024-02-21T00:41:51.906Z,52.30
2024-02-21T00:42:51.970Z,52.35
2024-02-21T00:43:52.046Z,52.41
2024-02-21T00:44:51.961Z,52.29
2024-02-21T00:45:51.999Z,52.72
2024-02-21T00:46:52.029Z,53.55
2024-02-21T00:47:52.158Z,52.53
2024-02-21T00:48:52.091Z,53.45
2024-02-21T00:49:52.242Z,53.99
2024-02-21T00:50:52.073Z,53.75
2024-02-21T00:51:52.095Z,53.21
2024-02-21T00:52:52.209Z,51.82
2024-02-21T00:53:52.109Z,55.18
2024-02-21T00:54:54.661Z,51.77
2024-02-21T00:55:52.237Z,53.06
2024-02-21T00:56:52.105Z,51.64
2024-02-21T00:57:52.123Z,52.57
2024-02-21T00:58:52.233Z,53.67
2024-02-21T00:59:52.150Z,51.54
2024-02-21T01:00:52.182Z,52.40
2024-02-21T01:01:52.221Z,53.24
2024-02-21T01:02:54.035Z,51.21
2024-02-21T01:03:52.186Z,51.31
2024-02-21T01:04:52.180Z,51.31
2024-02-21T01:05:52.208Z,52.29
2024-02-21T01:06:52.150Z,52.37
2024-02-21T01:07:52.208Z,50.04
2024-02-21T01:08:52.196Z,51.47
2024-02-21T01:09:52.183Z,53.47
2024-02-21T01:10:52.232Z,52.49
2024-02-21T01:11:52.205Z,50.78
2024-02-21T01:12:52.237Z,54.29
2024-02-21T01:13:52.247Z,53.82
2024-02-21T01:14:52.190Z,50.15
2024-02-21T01:15:52.196Z,52.03
2024-02-21T01:16:52.304Z,50.99
2024-02-21T01:17:52.310Z,54.64
2024-02-21T01:18:52.297Z,52.30
2024-02-21T01:19:52.275Z,52.38
2024-02-21T01:20:52.193Z,52.19
2024-02-21T01:21:52.221Z,53.47
2024-02-21T01:22:52.285Z,54.57
2024-02-21T01:23:52.202Z,55.05
2024-02-21T01:24:52.191Z,52.94
2024-02-21T01:25:52.269Z,52.09
2024-02-21T01:26:52.197Z,54.05
2024-02-21T01:27:52.223Z,54.89
2024-02-21T01:28:52.697Z,54.74
2024-02-21T01:29:52.213Z,50.00
2024-02-21T01:30:52.225Z,53.65
2024-02-21T01:31:52.302Z,55.48
2024-02-21T01:32:52.246Z,54.15
2024-02-21T01:33:52.248Z,55.14
2024-02-21T01:34:52.389Z,54.90
2024-02-21T01:35:52.400Z,53.94
2024-02-21T01:36:52.241Z,53.36
2024-02-21T01:37:52.264Z,52.23
2024-02-21T01:38:52.218Z,52.50
2024-02-21T01:39:52.267Z,52.27
2024-02-21T01:40:52.331Z,53.24
2024-02-21T01:41:52.227Z,51.98
2024-02-21T01:42:52.240Z,52.77
2024-02-21T01:43:52.354Z,52.27
2024-02-21T01:44:52.257Z,54.19
2024-02-21T01:45:52.271Z,52.32
2024-02-21T01:46:52.327Z,52.45
2024-02-21T01:47:52.397Z,52.03
2024-02-21T01:48:52.387Z,50.51
2024-02-21T01:49:52.367Z,52.62
2024-02-21T01:50:52.356Z,51.90
2024-02-21T01:51:52.390Z,51.61
2024-02-21T01:52:52.418Z,54.26
2024-02-21T01:53:52.410Z,53.10
2024-02-21T01:54:52.446Z,50.52
2024-02-21T01:55:52.423Z,51.60
2024-02-21T01:56:52.425Z,54.60
2024-02-21T01:57:52.422Z,52.11
2024-02-21T01:58:52.451Z,52.56
2024-02-21T01:59:52.444Z,50.00
2024-02-21T02:00:52.474Z,51.25
2024-02-21T02:01:52.511Z,52.07
2024-02-21T02:02:52.457Z,53.08
2024-02-21T02:03:52.590Z,54.82
2024-02-21T02:04:52.497Z,52.42
2024-02-21T02:05:52.494Z,52.84
2024-02-21T02:06:52.542Z,51.97
2024-02-21T02:07:52.629Z,53.54
2024-02-21T02:08:52.529Z,52.92
2024-02-21T02:09:52.574Z,53.56
2024-02-21T02:10:52.637Z,51.92
2024-02-21T02:11:52.682Z,52.25
2024-02-21T02:12:52.607Z,53.78
2024-02-21T02:13:52.693Z,53.34
2024-02-21T02:14:52.644Z,52.10
2024-02-21T02:15:52.653Z,51.04
2024-02-21T02:16:52.713Z,51.77
2024-02-21T02:17:52.705Z,52.30
2024-02-21T02:18:53.274Z,51.69
2024-02-21T02:19:52.765Z,52.29
2024-02-21T02:20:52.729Z,53.13
2024-02-21T02:21:52.724Z,52.75
2024-02-21T02:22:52.806Z,52.67
2024-02-21T02:23:52.743Z,52.38
2024-02-21T02:24:52.728Z,52.75
2024-02-21T02:25:52.937Z,52.54
2024-02-21T02:26:52.731Z,53.13
2024-02-21T02:27:52.798Z,52.37
2024-02-21T02:28:52.862Z,54.02
2024-02-21T02:29:52.805Z,53.81
2024-02-21T02:30:52.863Z,52.60
2024-02-21T02:31:52.953Z,54.41
2024-02-21T02:32:52.979Z,53.32
2024-02-21T02:33:53.258Z,54.22
2024-02-21T02:34:53.013Z,53.72
2024-02-21T02:35:52.882Z,52.73
2024-02-21T02:36:52.912Z,52.37
2024-02-21T02:37:52.982Z,52.03
2024-02-21T02:38:52.924Z,51.41
2024-02-21T02:39:52.930Z,53.75
2024-02-21T02:40:53.029Z,52.60
2024-02-21T02:41:53.025Z,53.41
2024-02-21T02:42:53.025Z,51.93
2024-02-21T02:43:53.083Z,54.40
2024-02-21T02:44:53.017Z,54.04
2024-02-21T02:45:53.042Z,53.65
2024-02-21T02:46:53.097Z,53.13
2024-02-21T02:47:53.151Z,53.10
2024-02-21T02:48:53.322Z,51.73
2024-02-21T02:49:53.124Z,52.25
2024-02-21T02:50:53.111Z,54.38
2024-02-21T02:51:53.098Z,54.40
2024-02-21T02:52:53.205Z,51.36
2024-02-21T02:53:53.203Z,52.04
2024-02-21T02:54:53.236Z,51.93
2024-02-21T02:55:53.290Z,54.46
2024-02-21T02:56:53.190Z,53.32
2024-02-21T02:57:53.217Z,52.42
2024-02-21T02:58:53.815Z,53.20
2024-02-21T02:59:53.273Z,52.13
2024-02-21T03:00:53.315Z,51.26
2024-02-21T03:01:53.315Z,52.95
2024-02-21T03:02:53.288Z,52.04
2024-02-21T03:03:53.369Z,52.10
2024-02-21T03:04:53.335Z,52.69
2024-02-21T03:05:53.372Z,52.05
2024-02-21T03:06:53.364Z,51.13
2024-02-21T03:07:53.490Z,52.86
2024-02-21T03:08:53.393Z,55.47
2024-02-21T03:09:53.380Z,52.39
2024-02-21T03:10:53.527Z,52.19
2024-02-21T03:11:53.475Z,52.85
2024-02-21T03:12:53.431Z,51.46
2024-02-21T03:13:53.829Z,54.83
2024-02-21T03:14:53.517Z,52.79
2024-02-21T03:15:53.484Z,54.08
2024-02-21T03:16:53.589Z,52.17
2024-02-21T03:17:53.581Z,52.99
2024-02-21T03:18:53.608Z,54.66
2024-02-21T03:19:53.604Z,52.15
2024-02-21T03:20:54.167Z,53.51
2024-02-21T03:21:53.555Z,53.28
2024-02-21T03:22:53.720Z,52.34
2024-02-21T03:23:54.187Z,54.64
2024-02-21T03:24:53.631Z,52.64
2024-02-21T03:25:53.670Z,52.53
2024-02-21T03:26:53.648Z,54.32
2024-02-21T03:27:53.636Z,55.34
2024-02-21T03:28:53.763Z,52.83
2024-02-21T03:29:53.684Z,52.87
2024-02-21T03:30:53.757Z,52.33
2024-02-21T03:31:53.782Z,50.99
2024-02-21T03:32:53.724Z,52.77
2024-02-21T03:33:54.240Z,53.94
2024-02-21T03:34:53.785Z,52.34
2024-02-21T03:35:53.751Z,53.27
2024-02-21T03:36:53.785Z,50.84
2024-02-21T03:37:53.832Z,52.16
2024-02-21T03:38:53.823Z,51.86
2024-02-21T03:39:53.771Z,52.57
2024-02-21T03:40:53.849Z,53.64
2024-02-21T03:41:53.799Z,53.31
2024-02-21T03:42:53.813Z,51.44
2024-02-21T03:43:54.336Z,53.59
2024-02-21T03:44:53.877Z,53.45
2024-02-21T03:45:53.888Z,52.83
2024-02-21T03:46:53.951Z,52.04
2024-02-21T03:47:53.929Z,53.27
2024-02-21T03:48:53.990Z,52.77
2024-02-21T03:49:54.001Z,52.12
2024-02-21T03:50:53.924Z,53.21
2024-02-21T03:51:53.969Z,53.87
2024-02-21T03:52:54.046Z,53.81
2024-02-21T03:53:54.179Z,52.36
2024-02-21T03:54:54.008Z,53.36
2024-02-21T03:55:54.102Z,52.83
2024-02-21T03:56:54.032Z,51.52
2024-02-21T03:57:54.049Z,51.61
2024-02-21T03:58:54.160Z,52.13
2024-02-21T03:59:54.071Z,50.86
2024-02-21T04:00:54.156Z,51.94
2024-02-21T04:01:54.153Z,54.71
2024-02-21T04:02:54.146Z,55.17
2024-02-21T04:03:54.310Z,54.41
2024-02-21T04:04:54.283Z,53.89
2024-02-21T04:05:54.245Z,53.02
2024-02-21T04:06:54.230Z,52.37
2024-02-21T04:07:54.401Z,51.45
2024-02-21T04:08:54.264Z,55.11
2024-02-21T04:09:54.291Z,50.94
2024-02-21T04:10:54.471Z,50.93
2024-02-21T04:11:54.333Z,55.79
2024-02-21T04:12:54.320Z,52.51
2024-02-21T04:13:54.723Z,51.50
2024-02-21T04:14:54.384Z,53.15
2024-02-21T04:15:54.362Z,53.72
2024-02-21T04:16:54.498Z,51.68
2024-02-21T04:17:54.540Z,53.31
2024-02-21T04:18:54.472Z,52.83
2024-02-21T04:19:54.516Z,54.70
2024-02-21T04:20:54.473Z,51.47
2024-02-21T04:21:54.527Z,51.86
2024-02-21T04:22:54.625Z,53.41
2024-02-21T04:23:54.702Z,52.16
2024-02-21T04:24:54.578Z,53.38
2024-02-21T04:25:54.675Z,54.35
2024-02-21T04:26:54.566Z,51.39
2024-02-21T04:27:54.637Z,51.33
2024-02-21T04:28:54.797Z,52.75
2024-02-21T04:29:54.685Z,53.35
2024-02-21T04:30:54.683Z,54.97
2024-02-21T04:31:54.674Z,53.39
2024-02-21T04:32:54.751Z,52.91
2024-02-21T04:33:55.247Z,53.08
2024-02-21T04:34:55.088Z,53.58
2024-02-21T04:35:54.734Z,53.64
2024-02-21T04:36:54.775Z,53.58
2024-02-21T04:37:55.830Z,53.62
2024-02-21T04:39:03.078Z,50.00
2024-02-21T04:40:03.099Z,50.00
2024-02-21T04:41:03.143Z,50.00
2024-02-21T04:42:03.123Z,50.00
2024-02-21T04:43:03.142Z,50.00
2024-02-21T04:44:03.209Z,51.56
2024-02-21T04:45:03.087Z,51.68
2024-02-21T04:46:03.116Z,51.45
2024-02-21T04:47:03.137Z,49.90
2024-02-21T04:48:03.114Z,52.94
2024-02-21T04:49:03.290Z,50.00
2024-02-21T04:50:03.329Z,50.21
2024-02-21T04:51:03.134Z,52.89
2024-02-21T04:52:03.123Z,52.38
2024-02-21T04:53:03.193Z,51.76
2024-02-21T04:54:03.213Z,52.93
2024-02-21T04:55:03.120Z,50.74
2024-02-21T04:56:03.272Z,51.53
2024-02-21T04:57:03.110Z,54.08
2024-02-21T04:58:03.109Z,52.64
2024-02-21T04:59:03.229Z,52.83
2024-02-21T05:00:03.102Z,51.53
2024-02-21T05:01:03.171Z,50.69
2024-02-21T05:02:03.169Z,53.71
2024-02-21T05:03:03.162Z,54.01
2024-02-21T05:04:03.240Z,51.75
2024-02-21T05:05:03.295Z,53.66
2024-02-21T05:06:03.176Z,52.57
2024-02-21T05:07:03.198Z,52.86
2024-02-21T05:08:03.159Z,52.88
2024-02-21T05:09:03.191Z,53.03
2024-02-21T05:10:03.160Z,53.70
2024-02-21T05:11:03.200Z,51.22
2024-02-21T05:12:03.162Z,55.18
2024-02-21T05:13:03.157Z,56.25
2024-02-21T05:14:03.287Z,51.83
2024-02-21T05:15:03.155Z,54.30
2024-02-21T05:16:03.134Z,51.70
2024-02-21T05:17:03.291Z,53.77
2024-02-21T05:18:03.371Z,53.84
2024-02-21T05:19:03.251Z,53.60
2024-02-21T05:20:03.293Z,52.94
2024-02-21T05:21:03.181Z,51.05
2024-02-21T05:22:03.175Z,53.57
2024-02-21T05:23:03.275Z,52.37
2024-02-21T05:24:03.232Z,53.66
2024-02-21T05:25:03.156Z,54.60
2024-02-21T05:26:03.238Z,51.49
2024-02-21T05:27:03.183Z,51.95
2024-02-21T05:28:03.280Z,52.47
2024-02-21T05:29:03.407Z,55.48
2024-02-21T05:30:03.183Z,54.89
2024-02-21T05:31:03.146Z,51.77
2024-02-21T05:32:03.171Z,53.63
2024-02-21T05:33:03.245Z,55.09
2024-02-21T05:34:03.997Z,54.84
2024-02-21T05:35:03.282Z,54.74
2024-02-21T05:36:03.184Z,53.46
2024-02-21T05:37:03.709Z,55.56
2024-02-21T05:38:03.254Z,54.30
2024-02-21T05:39:03.229Z,53.65
2024-02-21T05:40:03.161Z,55.73
2024-02-21T05:41:03.209Z,52.82
2024-02-21T05:42:03.179Z,52.97
2024-02-21T05:43:03.210Z,54.46
2024-02-21T05:44:03.270Z,53.47
2024-02-21T05:45:03.183Z,53.12
2024-02-21T05:46:03.225Z,52.59
2024-02-21T05:47:03.278Z,53.66
2024-02-21T05:48:03.317Z,51.60
2024-02-21T05:49:03.810Z,51.87
2024-02-21T05:50:03.325Z,52.40
2024-02-21T05:51:03.322Z,53.54
2024-02-21T05:52:03.345Z,52.44
2024-02-21T05:53:03.383Z,53.89
2024-02-21T05:54:03.742Z,53.39
2024-02-21T05:55:03.493Z,53.33
2024-02-21T05:56:03.541Z,53.79
2024-02-21T05:57:03.539Z,54.10
2024-02-21T05:58:03.589Z,52.83
2024-02-21T05:59:03.842Z,52.12
2024-02-21T06:00:03.565Z,51.01
2024-02-21T06:01:03.639Z,51.17
2024-02-21T06:02:03.674Z,52.72
2024-02-21T06:03:03.707Z,52.85
2024-02-21T06:04:03.743Z,50.24
2024-02-21T06:05:03.782Z,52.69
2024-02-21T06:06:03.736Z,54.29
2024-02-21T06:07:03.819Z,53.68
2024-02-21T06:08:03.895Z,53.15
2024-02-21T06:09:04.255Z,51.49
2024-02-21T06:10:03.856Z,53.80
2024-02-21T06:11:04.024Z,51.11
2024-02-21T06:12:03.939Z,53.60
2024-02-21T06:13:03.942Z,52.19
2024-02-21T06:14:04.084Z,53.47
2024-02-21T06:15:04.029Z,51.19
2024-02-21T06:16:04.052Z,53.13
2024-02-21T06:17:04.116Z,53.56
2024-02-21T06:18:04.273Z,51.88
2024-02-21T06:19:05.613Z,51.90
2024-02-21T06:20:04.272Z,55.13
2024-02-21T06:21:04.119Z,53.63
2024-02-21T06:22:04.173Z,52.78
2024-02-21T06:23:04.177Z,52.10
2024-02-21T06:24:04.176Z,54.01
2024-02-21T06:25:04.136Z,54.46
2024-02-21T06:26:04.216Z,53.26
2024-02-21T06:27:04.755Z,54.44
2024-02-21T06:28:04.174Z,53.17
2024-02-21T06:29:04.516Z,53.37
2024-02-21T06:30:04.217Z,54.40
2024-02-21T06:31:04.184Z,52.96
2024-02-21T06:32:04.214Z,53.17
2024-02-21T06:33:04.275Z,53.44
2024-02-21T06:34:04.343Z,52.10
2024-02-21T06:35:04.191Z,51.70
2024-02-21T06:36:04.144Z,54.53
2024-02-21T06:37:04.152Z,54.04
2024-02-21T06:38:04.167Z,51.96
2024-02-21T06:39:04.268Z,52.21
2024-02-21T06:40:04.150Z,52.95
2024-02-21T06:41:04.233Z,51.46
2024-02-21T06:42:04.392Z,52.28
2024-02-21T06:43:04.156Z,51.42
2024-02-21T06:44:04.439Z,52.61
2024-02-21T06:45:04.193Z,53.63
2024-02-21T06:46:04.188Z,53.14
2024-02-21T06:47:04.222Z,51.97
2024-02-21T06:48:04.270Z,50.50
2024-02-21T06:49:04.360Z,52.48
2024-02-21T06:50:04.241Z,53.01
2024-02-21T06:51:04.190Z,50.62
2024-02-21T06:52:04.200Z,52.63
2024-02-21T06:53:04.218Z,52.49
2024-02-21T06:54:04.216Z,51.12
2024-02-21T06:55:04.167Z,53.75
2024-02-21T06:56:04.250Z,52.44
2024-02-21T06:57:04.219Z,52.29
2024-02-21T06:58:04.247Z,52.63
2024-02-21T06:59:04.381Z,53.69
2024-02-21T07:00:04.165Z,52.75
2024-02-21T07:01:04.231Z,53.81
2024-02-21T07:02:04.224Z,55.49
2024-02-21T07:03:04.195Z,54.58
2024-02-21T07:04:04.212Z,56.35
2024-02-21T07:05:04.361Z,58.35
2024-02-21T07:06:04.355Z,59.00
2024-02-21T07:07:04.324Z,58.71
2024-02-21T07:08:04.268Z,58.56
2024-02-21T07:09:04.207Z,63.93
2024-02-21T07:10:04.213Z,62.32
2024-02-21T07:11:04.293Z,66.35
2024-02-21T07:12:04.286Z,66.02
2024-02-21T07:13:04.230Z,69.17
2024-02-21T07:14:04.392Z,69.30
2024-02-21T07:15:06.695Z,70.80
2024-02-21T07:16:04.259Z,71.86
2024-02-21T07:17:04.291Z,72.64
2024-02-21T07:18:04.309Z,75.30
2024-02-21T07:19:04.355Z,76.09
2024-02-21T07:20:04.364Z,76.26
2024-02-21T07:21:04.313Z,78.15
2024-02-21T07:22:04.257Z,80.48
2024-02-21T07:23:04.277Z,82.49
2024-02-21T07:24:04.291Z,84.23
2024-02-21T07:25:06.479Z,83.77
2024-02-21T07:26:04.557Z,83.91
2024-02-21T07:27:04.554Z,84.69
2024-02-21T07:28:04.631Z,87.14
2024-02-21T07:29:04.684Z,88.26
2024-02-21T07:30:04.696Z,93.28
2024-02-21T07:31:04.771Z,96.18
2024-02-21T07:32:04.865Z,96.31
2024-02-21T07:33:04.990Z,98.94
2024-02-21T07:34:05.325Z,100.22
2024-02-21T07:35:05.096Z,99.83
2024-02-21T07:36:05.074Z,102.55
2024-02-21T07:37:05.169Z,103.42
2024-02-21T07:38:05.284Z,103.57
2024-02-21T07:39:05.776Z,102.08
2024-02-21T07:40:05.360Z,105.58
2024-02-21T07:41:05.569Z,106.70
2024-02-21T07:42:05.485Z,105.25
2024-02-21T07:43:05.519Z,106.64
2024-02-21T07:44:05.735Z,109.11
2024-02-21T07:45:05.702Z,107.99
2024-02-21T07:46:05.741Z,109.32
2024-02-21T07:47:05.813Z,107.45
2024-02-21T07:48:06.004Z,110.01
2024-02-21T07:49:06.032Z,113.57
2024-02-21T07:50:06.045Z,111.78
2024-02-21T07:51:06.087Z,109.46
2024-02-21T07:52:06.145Z,112.28
2024-02-21T07:53:06.351Z,110.63
2024-02-21T07:54:06.297Z,110.25
2024-02-21T07:55:06.357Z,109.73
2024-02-21T07:56:06.431Z,111.68
2024-02-21T07:57:06.453Z,113.41
2024-02-21T07:58:06.516Z,113.75
2024-02-21T07:59:06.844Z,114.38
2024-02-21T08:00:06.646Z,115.73
2024-02-21T08:01:06.783Z,115.37
2024-02-21T08:02:06.911Z,115.84
2024-02-21T08:03:06.880Z,115.55
2024-02-21T08:04:07.055Z,116.03
2024-02-21T08:05:07.047Z,114.98
2024-02-21T08:06:07.171Z,115.43
2024-02-21T08:07:07.165Z,117.90
2024-02-21T08:08:07.244Z,119.21
2024-02-21T08:09:07.398Z,117.42
2024-02-21T08:10:07.471Z,120.22
2024-02-21T08:11:07.513Z,122.00
2024-02-21T08:12:07.675Z,120.60
2024-02-21T08:13:07.513Z,120.82
2024-02-21T08:14:07.672Z,120.66
2024-02-21T08:15:07.763Z,122.48
2024-02-21T08:16:07.747Z,123.83
2024-02-21T08:17:07.831Z,124.89
2024-02-21T08:18:07.958Z,122.70
2024-02-21T08:19:08.442Z,124.57
2024-02-21T08:20:08.016Z,127.80
2024-02-21T08:21:08.033Z,127.02
2024-02-21T08:22:08.095Z,127.96
2024-02-21T08:23:08.214Z,131.09
2024-02-21T08:24:08.341Z,128.29
2024-02-21T08:25:08.248Z,131.87
2024-02-21T08:26:08.353Z,128.94
2024-02-21T08:27:08.346Z,130.95
2024-02-21T08:28:08.405Z,136.07
2024-02-21T08:29:09.044Z,133.82
2024-02-21T08:30:08.489Z,135.30
2024-02-21T08:31:08.568Z,138.11
2024-02-21T08:32:08.814Z,136.96
2024-02-21T08:33:08.737Z,135.31
2024-02-21T08:34:09.055Z,136.96
2024-02-21T08:35:08.770Z,137.41
2024-02-21T08:36:08.805Z,137.39
2024-02-21T08:37:08.829Z,140.71
2024-02-21T08:38:09.045Z,138.33
2024-02-21T08:39:09.349Z,139.11
2024-02-21T08:40:08.948Z,143.14
2024-02-21T08:41:09.127Z,141.90
2024-02-21T08:42:09.078Z,142.47
2024-02-21T08:43:09.115Z,141.71
2024-02-21T08:44:09.327Z,140.98
2024-02-21T08:45:09.207Z,146.29
2024-02-21T08:46:09.218Z,152.38
2024-02-21T08:47:09.398Z,157.16
2024-02-21T08:48:09.496Z,161.18
2024-02-21T08:49:09.458Z,157.95
2024-02-21T08:50:18.978Z,156.19
2024-02-21T08:51:10.492Z,155.62
2024-02-21T08:52:09.395Z,152.07
2024-02-21T08:53:09.479Z,151.56
2024-02-21T08:54:09.845Z,152.32
2024-02-21T08:55:09.374Z,151.23
2024-02-21T08:56:09.602Z,149.22
2024-02-21T08:57:09.437Z,148.01
2024-02-21T08:58:09.425Z,146.61
2024-02-21T08:59:10.006Z,147.50
2024-02-21T09:00:09.468Z,147.98
2024-02-21T09:01:09.481Z,148.40
2024-02-21T09:02:09.580Z,149.84
2024-02-21T09:03:09.622Z,149.35
2024-02-21T09:04:09.705Z,148.71
2024-02-21T09:05:09.919Z,146.69
2024-02-21T09:06:09.905Z,146.18
2024-02-21T09:07:09.892Z,145.49
2024-02-21T09:08:09.908Z,145.92
2024-02-21T09:09:09.961Z,142.09
2024-02-21T09:10:10.345Z,147.12
2024-02-21T09:11:10.137Z,144.17
2024-02-21T09:12:10.194Z,140.68
2024-02-21T09:13:10.166Z,139.80
2024-02-21T09:14:10.307Z,136.64
2024-02-21T09:15:10.366Z,135.46
2024-02-21T09:16:10.423Z,131.38
2024-02-21T09:17:10.365Z,133.94
2024-02-21T09:18:10.447Z,133.71
2024-02-21T09:19:10.425Z,130.95
2024-02-21T09:20:10.895Z,129.37
2024-02-21T09:21:10.495Z,130.65
2024-02-21T09:22:10.586Z,128.72
2024-02-21T09:23:10.588Z,129.86
2024-02-21T09:24:10.585Z,129.95
2024-02-21T09:25:10.831Z,127.87
2024-02-21T09:26:10.737Z,128.23
2024-02-21T09:27:10.728Z,126.88
2024-02-21T09:28:10.742Z,127.66
2024-02-21T09:29:10.856Z,128.23
2024-02-21T09:30:11.056Z,126.51
2024-02-21T09:31:10.848Z,125.80
2024-02-21T09:32:10.919Z,125.39
2024-02-21T09:33:11.780Z,125.02
2024-02-21T09:34:11.083Z,125.06
2024-02-21T09:35:11.489Z,124.14
2024-02-21T09:36:10.887Z,125.02
2024-02-21T09:37:10.941Z,124.91
2024-02-21T09:38:10.915Z,123.81
2024-02-21T09:39:10.914Z,121.24
2024-02-21T09:40:10.889Z,120.83
2024-02-21T09:41:10.920Z,121.65
2024-02-21T09:42:10.912Z,120.55
2024-02-21T09:43:10.932Z,121.57
2024-02-21T09:44:11.030Z,120.88
2024-02-21T09:45:11.336Z,122.33
2024-02-21T09:46:10.936Z,120.09
2024-02-21T09:47:10.964Z,119.81
2024-02-21T09:48:11.021Z,119.61
2024-02-21T09:49:10.924Z,120.11
2024-02-21T09:50:10.962Z,118.20
2024-02-21T09:51:10.901Z,117.52
2024-02-21T09:52:10.902Z,119.16
2024-02-21T09:53:10.917Z,121.23
2024-02-21T09:54:16.131Z,116.76
2024-02-21T09:55:12.390Z,116.85
2024-02-21T09:56:15.207Z,117.20
2024-02-21T09:57:10.948Z,116.88
2024-02-21T09:58:10.931Z,117.23
2024-02-21T09:59:10.984Z,116.84
2024-02-21T10:00:11.339Z,117.89
2024-02-21T10:01:21.226Z,115.45
2024-02-21T10:02:12.002Z,116.82
2024-02-21T10:03:10.969Z,116.89
2024-02-21T10:04:11.028Z,117.44
2024-02-21T10:05:11.408Z,116.78
2024-02-21T10:06:11.063Z,116.10
2024-02-21T10:07:11.000Z,118.07
2024-02-21T10:08:11.064Z,115.85
2024-02-21T10:09:10.941Z,114.15
2024-02-21T10:10:11.430Z,115.89
2024-02-21T10:11:10.997Z,114.83
2024-02-21T10:12:11.228Z,113.95
2024-02-21T10:13:10.963Z,115.03
2024-02-21T10:14:11.030Z,113.33
2024-02-21T10:15:11.360Z,112.10
2024-02-21T10:16:11.029Z,114.68
2024-02-21T10:17:11.847Z,112.23
2024-02-21T10:18:11.065Z,112.63
2024-02-21T10:19:10.990Z,112.46
2024-02-21T10:20:11.610Z,110.91
2024-02-21T10:21:11.016Z,112.85
2024-02-21T10:22:11.417Z,111.39
2024-02-21T10:23:11.172Z,109.47
2024-02-21T10:24:10.982Z,110.96
2024-02-21T10:25:11.011Z,111.48
2024-02-21T10:26:11.168Z,113.87
2024-02-21T10:27:11.001Z,111.27
2024-02-21T10:28:11.005Z,109.10
2024-02-21T10:29:11.111Z,110.08
2024-02-21T10:30:12.705Z,111.77
2024-02-21T10:31:11.030Z,109.26
2024-02-21T10:32:11.133Z,109.51
2024-02-21T10:33:11.108Z,107.29
2024-02-21T10:34:11.108Z,108.00
2024-02-21T10:35:11.462Z,108.39
2024-02-21T10:36:11.112Z,109.58
2024-02-21T10:37:11.032Z,108.31
2024-02-21T10:38:11.068Z,107.96
2024-02-21T10:39:11.017Z,107.05
2024-02-21T10:40:11.022Z,107.23
2024-02-21T10:41:11.026Z,105.79
2024-02-21T10:42:11.090Z,107.59
2024-02-21T10:43:11.024Z,107.03
2024-02-21T10:44:11.088Z,106.87
2024-02-21T10:45:12.912Z,107.73
2024-02-21T10:46:11.027Z,108.66
2024-02-21T10:47:11.232Z,106.85
2024-02-21T10:48:11.145Z,108.90
2024-02-21T10:49:11.288Z,108.15
2024-02-21T10:50:11.166Z,107.60
2024-02-21T10:51:11.057Z,110.26
2024-02-21T10:52:11.087Z,108.62
2024-02-21T10:53:11.188Z,109.22
2024-02-21T10:54:11.060Z,108.60
2024-02-21T10:55:11.059Z,108.45
2024-02-21T10:56:13.300Z,108.12
2024-02-21T10:57:11.085Z,108.18
2024-02-21T10:58:11.076Z,108.57
2024-02-21T10:59:11.223Z,108.35
2024-02-21T11:00:11.106Z,109.38
2024-02-21T11:01:11.155Z,109.78
2024-02-21T11:02:11.165Z,110.40
2024-02-21T11:03:11.147Z,112.50
2024-02-21T11:04:11.110Z,109.79
2024-02-21T11:05:11.181Z,110.98
2024-02-21T11:06:11.113Z,110.71
2024-02-21T11:07:11.817Z,107.71
2024-02-21T11:08:11.228Z,111.20
2024-02-21T11:09:11.364Z,108.86
2024-02-21T11:10:11.401Z,111.19
2024-02-21T11:11:17.349Z,106.96
2024-02-21T11:12:12.236Z,107.09
2024-02-21T11:13:11.195Z,107.22
2024-02-21T11:14:11.315Z,107.43
2024-02-21T11:15:11.391Z,107.13
2024-02-21T11:16:11.082Z,106.33
2024-02-21T11:17:11.188Z,106.95
2024-02-21T11:18:11.194Z,106.32
2024-02-21T11:19:11.233Z,106.89
2024-02-21T11:20:11.464Z,106.21
2024-02-21T11:21:11.145Z,104.59
2024-02-21T11:22:11.135Z,100.06
2024-02-21T11:23:11.174Z,103.48
2024-02-21T11:24:11.163Z,101.04
2024-02-21T11:25:11.129Z,101.49
2024-02-21T11:26:11.294Z,102.40
2024-02-21T11:27:11.178Z,101.43
2024-02-21T11:28:12.578Z,100.36
2024-02-21T11:29:11.382Z,100.34
2024-02-21T11:30:11.439Z,99.72
2024-02-21T11:31:11.317Z,99.58
2024-02-21T11:32:11.929Z,98.21
2024-02-21T11:33:11.447Z,99.28
2024-02-21T11:34:11.390Z,96.15
2024-02-21T11:35:11.471Z,97.41
2024-02-21T11:36:11.389Z,97.96
2024-02-21T11:37:11.377Z,100.60
2024-02-21T11:38:11.702Z,96.55
2024-02-21T11:39:11.429Z,96.93
2024-02-21T11:40:12.902Z,99.78
2024-02-21T11:41:12.973Z,98.57
2024-02-21T11:42:11.425Z,98.73
2024-02-21T11:43:11.480Z,99.85
2024-02-21T11:44:11.505Z,99.16
2024-02-21T11:45:11.939Z,99.31
2024-02-21T11:46:11.499Z,98.68
2024-02-21T11:47:11.579Z,98.03
2024-02-21T11:48:11.491Z,95.94
2024-02-21T11:49:11.578Z,100.67
2024-02-21T11:50:11.731Z,98.67
2024-02-21T11:51:11.478Z,98.17
2024-02-21T11:52:11.480Z,95.60
2024-02-21T11:53:11.582Z,96.71
2024-02-21T11:54:11.487Z,99.12
2024-02-21T11:55:11.947Z,97.91
2024-02-21T11:56:11.584Z,99.41
2024-02-21T11:57:11.507Z,98.34
2024-02-21T11:58:11.500Z,96.82
2024-02-21T11:59:11.580Z,97.39
2024-02-21T12:00:11.474Z,100.53
2024-02-21T12:01:11.523Z,98.47
2024-02-21T12:02:11.501Z,99.96
2024-02-21T12:03:11.467Z,99.43
2024-02-21T12:04:11.565Z,99.86
2024-02-21T12:05:11.643Z,100.21
2024-02-21T12:06:11.643Z,100.83
2024-02-21T12:07:11.562Z,100.34
2024-02-21T12:08:11.560Z,101.02
2024-02-21T12:09:11.485Z,99.64
2024-02-21T12:10:12.023Z,99.60
2024-02-21T12:11:11.670Z,101.46
2024-02-21T12:12:11.573Z,102.73
2024-02-21T12:13:11.536Z,99.11
2024-02-21T12:14:11.550Z,102.29
2024-02-21T12:15:11.958Z,101.37
2024-02-21T12:16:11.494Z,100.25
2024-02-21T12:17:11.567Z,103.34
2024-02-21T12:18:11.587Z,100.38
2024-02-21T12:19:11.618Z,101.38
2024-02-21T12:20:11.742Z,102.14
2024-02-21T12:21:11.493Z,104.34
2024-02-21T12:22:11.502Z,102.27
2024-02-21T12:23:11.757Z,103.89
2024-02-21T12:24:11.501Z,103.88
2024-02-21T12:25:11.979Z,103.11
2024-02-21T12:26:11.559Z,103.89
2024-02-21T12:27:11.518Z,104.43
2024-02-21T12:28:11.537Z,103.45
2024-02-21T12:29:11.537Z,103.72
2024-02-21T12:30:11.523Z,104.22
2024-02-21T12:31:11.581Z,103.55
2024-02-21T12:32:11.627Z,105.68
2024-02-21T12:33:11.623Z,108.00
2024-02-21T12:34:11.643Z,103.45
2024-02-21T12:35:12.067Z,104.41
2024-02-21T12:36:11.588Z,104.19
2024-02-21T12:37:11.545Z,104.01
2024-02-21T12:38:11.614Z,103.20
2024-02-21T12:39:11.547Z,105.09
2024-02-21T12:40:12.086Z,106.83
2024-02-21T12:41:11.576Z,104.96
2024-02-21T12:42:11.580Z,103.57
2024-02-21T12:43:11.544Z,103.65
2024-02-21T12:44:11.703Z,107.91